< < Back
Terminal Aerodrome Forecast


Current Version              Previous Versions:   1  2  3  4  5  6  7  8  9  

Terminal Aerodrome Forecast

709
FTUS44 KBMX 251135
TAFMGM
TAF
KMGM 251135Z 2512/2612 15006KT P6SM FEW250=

Latest METAR

471
SAUS80 KWBC 261000 RRA
MTRMGM
METAR KMGM 260953Z AUTO 00000KT 10SM CLR 21/18 A3013 RMK AO2 SLP201
T02060178


USA.gov is the U.S. government's official web portal to all federal, state and local government web resources and services.